Overseas Santorini — V7TB5 — position and weather

sailwx.info

Track history (hours):
 
Tides and Currents Weather Stations Pressure Air Temp Water Temp Dewpoint Dewpoint Depression Visibility Wind Speed Wind Dir Waves Ship Positions

Overseas Santorini

Last reported at 2018-Apr-25 02:01 UTC. Time now 2018-Apr-26 09:29 UTC.
Position N 11°02' W 074°49'.

Length 183 m; draft 11 m.

Type: Ship (hazmat cat A). MMSI: 538003772.

Date/timePositionNaut miles runAvg speedWind from/ knotsBaromVisibWave heightAir tempDewpointWater temp
2018-Apr-25 02:01N 11°02' W 074°49'0 0.0
2018-Apr-25 01:46N 11°02' W 074°49'0 0.0
2018-Apr-25 01:25N 11°02' W 074°49'0 0.0
2018-Apr-25 00:58N 11°02' W 074°49'0 0.0
2018-Apr-25 00:28N 11°02' W 074°49'0 0.0
2018-Apr-24 23:58N 11°02' W 074°49'0 0.0
2018-Apr-24 23:28N 11°02' W 074°49'0 0.0
2018-Apr-24 22:58N 11°02' W 074°49'0 0.0
2018-Apr-24 22:28N 11°02' W 074°49'0 0.0
2018-Apr-24 21:58N 11°02' W 074°49'0 0.0
2018-Apr-24 21:28N 11°02' W 074°49'0 0.0
2018-Apr-24 20:58N 11°02' W 074°49'0 0.0
2018-Apr-24 20:28N 11°02' W 074°49'0 0.0
2018-Apr-24 19:58N 11°02' W 074°49'0 0.0
2018-Apr-24 19:28N 11°02' W 074°49'0 0.0
2018-Apr-24 18:58N 11°02' W 074°49'0 0.0
2018-Apr-24 18:28N 11°02' W 074°49'0 0.0
2018-Apr-24 17:58N 11°02' W 074°49'0 0.0
2018-Apr-24 17:28N 11°02' W 074°49'0 0.0
2018-Apr-24 16:58N 11°02' W 074°49'0 0.0
2018-Apr-24 16:28N 11°02' W 074°49'0 0.0
2018-Apr-24 15:58N 11°02' W 074°49'0 0.0
2018-Apr-24 15:28N 11°02' W 074°49'0 0.0
2018-Apr-24 14:58N 11°02' W 074°49'0 0.0
2018-Apr-24 14:28N 11°02' W 074°49'0 0.0
2018-Apr-24 13:58N 11°02' W 074°49'0 0.0
2018-Apr-24 13:28N 11°02' W 074°49'0 0.0
2018-Apr-24 12:58N 11°02' W 074°49'1 1.2
2018-Apr-24 12:28N 11°03' W 074°49'4 7.4
2018-Apr-24 12:00N 11°06' W 074°51'4 6.9
2018-Apr-24 11:29N 11°07' W 074°54'2 3.9
2018-Apr-24 10:58N 11°09' W 074°56'2 3.8
2018-Apr-24 10:29N 11°10' W 074°56'10 2.2
2018-Apr-24 06:03N 11°20' W 074°58'6 7.7
2018-Apr-24 05:16N 11°14' W 074°58'2 7.5
2018-Apr-24 05:00N 11°12' W 074°59'4 7.1
2018-Apr-24 04:30N 11°08' W 074°59'2 4.7
2018-Apr-24 04:00N 11°06' W 075°00'2 3.1
2018-Apr-24 03:30N 11°08' W 074°60'2 3.0
2018-Apr-24 03:00N 11°09' W 074°60'1 2.8
2018-Apr-24 02:30N 11°10' W 074°59'1 2.6
2018-Apr-24 01:59N 11°12' W 074°59'1 2.8
2018-Apr-24 01:28N 11°13' W 074°59'1 2.5
2018-Apr-24 01:00N 11°14' W 074°59'1 2.6
2018-Apr-24 00:30N 11°15' W 074°58'4 7.8
2018-Apr-23 23:57N 11°13' W 074°54'1 2.1
2018-Apr-23 23:17N 11°14' W 074°55'1 4.3
2018-Apr-23 23:00N 11°15' W 074°56'10 1.8
2018-Apr-23 17:18N 11°20' W 075°05'1 3.7
2018-Apr-23 16:57N 11°20' W 075°04'2 3.4
2018-Apr-23 16:23N 11°19' W 075°02'1 3.6
2018-Apr-23 16:00N 11°18' W 075°01'2 3.6
2018-Apr-23 15:30N 11°17' W 074°59'2 3.6
2018-Apr-23 15:00N 11°17' W 074°57'2 3.4
2018-Apr-23 14:29N 11°16' W 074°56'2 3.4
2018-Apr-23 14:00N 11°15' W 074°54'5 2.8
2018-Apr-23 12:16N 11°14' W 074°50'1 3.6
2018-Apr-23 11:56N 11°14' W 074°51'5 7.8
2018-Apr-23 11:17N 11°15' W 074°56'2 7.4
2018-Apr-23 10:59N 11°16' W 074°58'4 7.5
2018-Apr-23 10:29N 11°17' W 075°02'1 0.2
2018-Apr-23 05:36N 11°18' W 075°01'1 3.7
2018-Apr-23 05:22N 11°18' W 075°00'10 3.3
2018-Apr-23 02:11N 11°15' W 074°50'1 2.7
2018-Apr-23 01:41N 11°14' W 074°49'1 3.4
2018-Apr-23 01:29N 11°15' W 074°50'9 8.7
2018-Apr-23 00:30N 11°17' W 074°58'4 0.6
2018-Apr-22 18:09N 11°19' W 075°02'1 3.4
2018-Apr-22 17:56N 11°18' W 075°01'1 3.4
2018-Apr-22 17:30N 11°18' W 074°60'2 3.5
2018-Apr-22 16:58N 11°17' W 074°58'14 0.3
2018-Apr-20 13:36N 11°08' W 075°09'2 4.3
2018-Apr-20 13:09N 11°08' W 075°07'5 6.1
2018-Apr-20 12:25N 11°09' W 075°03'13 0.4
2018-Apr-19 06:31N 11°18' W 074°53'0 8.6
2018-Apr-19 06:30N 11°18' W 074°53'2 4.6
2018-Apr-19 06:00N 11°16' W 074°52'1 2.7
2018-Apr-19 05:28N 11°17' W 074°52'3 2.6
2018-Apr-19 04:19N 11°20' W 074°51'2 2.6
2018-Apr-19 03:44N 11°21' W 074°50'1 2.6
2018-Apr-19 03:30N 11°22' W 074°50'1 2.6
2018-Apr-19 02:59N 11°23' W 074°50'2 2.7
2018-Apr-19 02:18N 11°25' W 074°49'1 1.4
2018-Apr-19 01:48N 11°25' W 074°50'4 8.4
2018-Apr-19 01:18N 11°21' W 074°52'7 8.7
2018-Apr-19 00:33N 11°15' W 074°54'0 6.9
2018-Apr-19 00:30N 11°15' W 074°55'0 0.6
2018-Apr-18 23:56N 11°15' W 074°54'1 2.7
2018-Apr-18 23:25N 11°16' W 074°54'1 2.6
2018-Apr-18 22:57N 11°17' W 074°53'15 0.3
2018-Apr-16 19:56N 11°02' W 074°49'0 0.0
2018-Apr-16 19:26N 11°02' W 074°49'0 0.0
2018-Apr-16 18:59N 11°02' W 074°49'0 0.0
2018-Apr-16 18:29N 11°02' W 074°49'0 0.0
2018-Apr-16 17:59N 11°02' W 074°49'0 0.0
2018-Apr-16 17:29N 11°02' W 074°49'0 0.0
2018-Apr-16 16:59N 11°02' W 074°49'0 0.0
2018-Apr-16 16:29N 11°02' W 074°49'0 0.0
2018-Apr-16 15:59N 11°02' W 074°49'0 0.0
2018-Apr-16 15:29N 11°02' W 074°49'0 0.0
2018-Apr-16 14:59N 11°02' W 074°49'0 0.0
2018-Apr-16 14:29N 11°02' W 074°49'0 0.0
2018-Apr-16 13:59N 11°02' W 074°49'0 0.0
2018-Apr-16 13:29N 11°02' W 074°49'0 0.0
2018-Apr-16 12:59N 11°02' W 074°49'0 0.0
2018-Apr-16 12:29N 11°02' W 074°49'0 0.0
2018-Apr-16 11:59N 11°02' W 074°49'0 0.0
2018-Apr-15 20:47N 11°02' W 074°49'0 0.0
2018-Apr-15 20:05N 11°02' W 074°49'0 0.0
2018-Apr-15 19:50N 11°02' W 074°49'0 0.0
2018-Apr-15 19:17N 11°02' W 074°49'0 0.0
2018-Apr-15 18:56N 11°02' W 074°49'0 0.0
2018-Apr-15 18:29N 11°02' W 074°49'0 0.0
2018-Apr-15 17:59N 11°02' W 074°49'0 0.0
2018-Apr-15 17:29N 11°02' W 074°49'0 0.0
2018-Apr-15 16:59N 11°02' W 074°49'0 0.0
2018-Apr-15 16:29N 11°02' W 074°49'0 0.0
2018-Apr-15 15:59N 11°02' W 074°49'0 0.0
2018-Apr-15 15:29N 11°02' W 074°49'0 0.0
2018-Apr-15 14:59N 11°02' W 074°49'0 0.0
2018-Apr-15 14:29N 11°02' W 074°49'0 0.0
2018-Apr-15 13:59N 11°02' W 074°49'0 0.0
2018-Apr-15 13:29N 11°02' W 074°49'0 0.0
2018-Apr-15 12:59N 11°02' W 074°49'0 0.0
2018-Apr-15 12:29N 11°02' W 074°49'0 0.0
2018-Apr-15 11:59N 11°02' W 074°49'  
Track history (hours):
 
Tides and Currents Weather Stations Pressure Air Temp Water Temp Dewpoint Dewpoint Depression Visibility Wind Speed Wind Dir Waves Ship Positions

Overseas Santorini

Last reported at 2018-Apr-25 02:01 UTC. Time now 2018-Apr-26 09:29 UTC.
Position N 11°02' W 074°49'.

Length 183 m; draft 11 m.

Type: Ship (hazmat cat A). MMSI: 538003772.

Date/timePositionNaut miles runAvg speedWind from/ knotsBaromVisibWave heightAir tempDewpointWater temp
2018-Apr-25 02:01N 11°02' W 074°49'0 0.0
2018-Apr-25 01:46N 11°02' W 074°49'0 0.0
2018-Apr-25 01:25N 11°02' W 074°49'0 0.0
2018-Apr-25 00:58N 11°02' W 074°49'0 0.0
2018-Apr-25 00:28N 11°02' W 074°49'0 0.0
2018-Apr-24 23:58N 11°02' W 074°49'0 0.0
2018-Apr-24 23:28N 11°02' W 074°49'0 0.0
2018-Apr-24 22:58N 11°02' W 074°49'0 0.0
2018-Apr-24 22:28N 11°02' W 074°49'0 0.0
2018-Apr-24 21:58N 11°02' W 074°49'0 0.0
2018-Apr-24 21:28N 11°02' W 074°49'0 0.0
2018-Apr-24 20:58N 11°02' W 074°49'0 0.0
2018-Apr-24 20:28N 11°02' W 074°49'0 0.0
2018-Apr-24 19:58N 11°02' W 074°49'0 0.0
2018-Apr-24 19:28N 11°02' W 074°49'0 0.0
2018-Apr-24 18:58N 11°02' W 074°49'0 0.0
2018-Apr-24 18:28N 11°02' W 074°49'0 0.0
2018-Apr-24 17:58N 11°02' W 074°49'0 0.0
2018-Apr-24 17:28N 11°02' W 074°49'0 0.0
2018-Apr-24 16:58N 11°02' W 074°49'0 0.0
2018-Apr-24 16:28N 11°02' W 074°49'0 0.0
2018-Apr-24 15:58N 11°02' W 074°49'0 0.0
2018-Apr-24 15:28N 11°02' W 074°49'0 0.0
2018-Apr-24 14:58N 11°02' W 074°49'0 0.0
2018-Apr-24 14:28N 11°02' W 074°49'0 0.0
2018-Apr-24 13:58N 11°02' W 074°49'0 0.0
2018-Apr-24 13:28N 11°02' W 074°49'0 0.0
2018-Apr-24 12:58N 11°02' W 074°49'1 1.2
2018-Apr-24 12:28N 11°03' W 074°49'4 7.4
2018-Apr-24 12:00N 11°06' W 074°51'4 6.9
2018-Apr-24 11:29N 11°07' W 074°54'2 3.9
2018-Apr-24 10:58N 11°09' W 074°56'2 3.8
2018-Apr-24 10:29N 11°10' W 074°56'10 2.2
2018-Apr-24 06:03N 11°20' W 074°58'6 7.7
2018-Apr-24 05:16N 11°14' W 074°58'2 7.5
2018-Apr-24 05:00N 11°12' W 074°59'4 7.1
2018-Apr-24 04:30N 11°08' W 074°59'2 4.7
2018-Apr-24 04:00N 11°06' W 075°00'2 3.1
2018-Apr-24 03:30N 11°08' W 074°60'2 3.0
2018-Apr-24 03:00N 11°09' W 074°60'1 2.8
2018-Apr-24 02:30N 11°10' W 074°59'1 2.6
2018-Apr-24 01:59N 11°12' W 074°59'1 2.8
2018-Apr-24 01:28N 11°13' W 074°59'1 2.5
2018-Apr-24 01:00N 11°14' W 074°59'1 2.6
2018-Apr-24 00:30N 11°15' W 074°58'4 7.8
2018-Apr-23 23:57N 11°13' W 074°54'1 2.1
2018-Apr-23 23:17N 11°14' W 074°55'1 4.3
2018-Apr-23 23:00N 11°15' W 074°56'10 1.8
2018-Apr-23 17:18N 11°20' W 075°05'1 3.7
2018-Apr-23 16:57N 11°20' W 075°04'2 3.4
2018-Apr-23 16:23N 11°19' W 075°02'1 3.6
2018-Apr-23 16:00N 11°18' W 075°01'2 3.6
2018-Apr-23 15:30N 11°17' W 074°59'2 3.6
2018-Apr-23 15:00N 11°17' W 074°57'2 3.4
2018-Apr-23 14:29N 11°16' W 074°56'2 3.4
2018-Apr-23 14:00N 11°15' W 074°54'5 2.8
2018-Apr-23 12:16N 11°14' W 074°50'1 3.6
2018-Apr-23 11:56N 11°14' W 074°51'5 7.8
2018-Apr-23 11:17N 11°15' W 074°56'2 7.4
2018-Apr-23 10:59N 11°16' W 074°58'4 7.5
2018-Apr-23 10:29N 11°17' W 075°02'1 0.2
2018-Apr-23 05:36N 11°18' W 075°01'1 3.7
2018-Apr-23 05:22N 11°18' W 075°00'10 3.3
2018-Apr-23 02:11N 11°15' W 074°50'1 2.7
2018-Apr-23 01:41N 11°14' W 074°49'1 3.4
2018-Apr-23 01:29N 11°15' W 074°50'9 8.7
2018-Apr-23 00:30N 11°17' W 074°58'4 0.6
2018-Apr-22 18:09N 11°19' W 075°02'1 3.4
2018-Apr-22 17:56N 11°18' W 075°01'1 3.4
2018-Apr-22 17:30N 11°18' W 074°60'2 3.5
2018-Apr-22 16:58N 11°17' W 074°58'14 0.3
2018-Apr-20 13:36N 11°08' W 075°09'2 4.3
2018-Apr-20 13:09N 11°08' W 075°07'5 6.1
2018-Apr-20 12:25N 11°09' W 075°03'13 0.4
2018-Apr-19 06:31N 11°18' W 074°53'0 8.6
2018-Apr-19 06:30N 11°18' W 074°53'2 4.6
2018-Apr-19 06:00N 11°16' W 074°52'1 2.7
2018-Apr-19 05:28N 11°17' W 074°52'3 2.6
2018-Apr-19 04:19N 11°20' W 074°51'2 2.6
2018-Apr-19 03:44N 11°21' W 074°50'1 2.6
2018-Apr-19 03:30N 11°22' W 074°50'1 2.6
2018-Apr-19 02:59N 11°23' W 074°50'2 2.7
2018-Apr-19 02:18N 11°25' W 074°49'1 1.4
2018-Apr-19 01:48N 11°25' W 074°50'4 8.4
2018-Apr-19 01:18N 11°21' W 074°52'7 8.7
2018-Apr-19 00:33N 11°15' W 074°54'0 6.9
2018-Apr-19 00:30N 11°15' W 074°55'0 0.6
2018-Apr-18 23:56N 11°15' W 074°54'1 2.7
2018-Apr-18 23:25N 11°16' W 074°54'1 2.6
2018-Apr-18 22:57N 11°17' W 074°53'15 0.3
2018-Apr-16 19:56N 11°02' W 074°49'0 0.0
2018-Apr-16 19:26N 11°02' W 074°49'0 0.0
2018-Apr-16 18:59N 11°02' W 074°49'0 0.0
2018-Apr-16 18:29N 11°02' W 074°49'0 0.0
2018-Apr-16 17:59N 11°02' W 074°49'0 0.0
2018-Apr-16 17:29N 11°02' W 074°49'0 0.0
2018-Apr-16 16:59N 11°02' W 074°49'0 0.0
2018-Apr-16 16:29N 11°02' W 074°49'0 0.0
2018-Apr-16 15:59N 11°02' W 074°49'0 0.0
2018-Apr-16 15:29N 11°02' W 074°49'0 0.0
2018-Apr-16 14:59N 11°02' W 074°49'0 0.0
2018-Apr-16 14:29N 11°02' W 074°49'0 0.0
2018-Apr-16 13:59N 11°02' W 074°49'0 0.0
2018-Apr-16 13:29N 11°02' W 074°49'0 0.0
2018-Apr-16 12:59N 11°02' W 074°49'0 0.0
2018-Apr-16 12:29N 11°02' W 074°49'0 0.0
2018-Apr-16 11:59N 11°02' W 074°49'0 0.0
2018-Apr-15 20:47N 11°02' W 074°49'0 0.0
2018-Apr-15 20:05N 11°02' W 074°49'0 0.0
2018-Apr-15 19:50N 11°02' W 074°49'0 0.0
2018-Apr-15 19:17N 11°02' W 074°49'0 0.0
2018-Apr-15 18:56N 11°02' W 074°49'0 0.0
2018-Apr-15 18:29N 11°02' W 074°49'0 0.0
2018-Apr-15 17:59N 11°02' W 074°49'0 0.0
2018-Apr-15 17:29N 11°02' W 074°49'0 0.0
2018-Apr-15 16:59N 11°02' W 074°49'0 0.0
2018-Apr-15 16:29N 11°02' W 074°49'0 0.0
2018-Apr-15 15:59N 11°02' W 074°49'0 0.0
2018-Apr-15 15:29N 11°02' W 074°49'0 0.0
2018-Apr-15 14:59N 11°02' W 074°49'0 0.0
2018-Apr-15 14:29N 11°02' W 074°49'0 0.0
2018-Apr-15 13:59N 11°02' W 074°49'0 0.0
2018-Apr-15 13:29N 11°02' W 074°49'0 0.0
2018-Apr-15 12:59N 11°02' W 074°49'0 0.0
2018-Apr-15 12:29N 11°02' W 074°49'0 0.0
2018-Apr-15 11:59N 11°02' W 074°49'  

Dump ship's entire track history